Time;durP1;ratioP1;P1;durP2;ratioP2;P2;SDS_P1;SDS_P2;PMS_P1;PMS_P2;Temp;Humidity;BMP_temperature;BMP_pressure;BME280_temperature;BME280_humidity;BME280_pressure;Samples;Min_cycle;Max_cycle;Signal;HPM_P1;HPM_P2
2022/03/25 00:01:30;;;;;;;30.40;14.60;;;8.90;57.40;;;;;;5090739;28;20842;-72
2022/03/25 00:03:57;;;;;;;38.17;15.57;;;8.90;57.80;;;;;;5092299;28;20693;-70
2022/03/25 00:06:23;;;;;;;30.70;15.60;;;8.80;57.80;;;;;;5092678;28;20868;-71
2022/03/25 00:08:49;;;;;;;34.70;15.87;;;8.80;58.10;;;;;;5074709;28;20420;-72
2022/03/25 00:11:15;;;;;;;36.20;16.20;;;8.70;58.50;;;;;;5094846;28;20421;-73
2022/03/25 00:13:40;;;;;;;32.40;15.20;;;8.70;58.10;;;;;;5096888;28;20494;-72
2022/03/25 00:16:07;;;;;;;33.93;14.93;;;8.70;57.70;;;;;;5079015;28;20606;-72
2022/03/25 00:18:33;;;;;;;30.40;15.60;;;8.70;57.70;;;;;;5097980;28;20210;-72
2022/03/25 00:20:59;;;;;;;30.50;15.40;;;8.70;57.80;;;;;;5100167;28;20425;-73
2022/03/25 00:23:25;;;;;;;28.70;15.93;;;8.60;58.00;;;;;;5100457;28;20528;-72
2022/03/25 00:25:51;;;;;;;33.63;15.00;;;8.60;58.40;;;;;;5100535;28;20550;-71
2022/03/25 00:28:17;;;;;;;28.40;14.80;;;8.60;58.50;;;;;;5099594;28;20232;-72
2022/03/25 00:30:43;;;;;;;31.23;15.33;;;8.50;58.90;;;;;;5095509;28;20421;-71
2022/03/25 00:33:09;;;;;;;32.37;15.73;;;8.50;59.10;;;;;;5096212;28;20935;-73
2022/03/25 00:35:35;;;;;;;26.70;13.87;;;8.40;59.20;;;;;;5097058;28;20186;-72
2022/03/25 00:38:01;;;;;;;29.13;14.80;;;8.40;59.50;;;;;;5096521;28;20413;-73
2022/03/25 00:40:27;;;;;;;33.50;15.70;;;8.40;59.60;;;;;;5096859;28;20405;-73
2022/03/25 00:42:53;;;;;;;34.27;15.20;;;8.30;59.70;;;;;;5099073;28;20477;-71
2022/03/25 00:45:19;;;;;;;32.83;14.97;;;8.30;59.90;;;;;;5100654;28;21039;-72
2022/03/25 00:47:45;;;;;;;30.40;14.20;;;8.30;59.90;;;;;;5100388;28;20546;-71
2022/03/25 00:50:14;;;;;;;29.30;15.03;;;8.20;59.90;;;;;;5096523;28;20498;-71
2022/03/25 00:52:40;;;;;;;38.20;15.90;;;8.20;60.00;;;;;;5073036;28;20202;-72
2022/03/25 00:55:06;;;;;;;26.97;14.23;;;8.20;60.30;;;;;;5094167;28;20409;-72
2022/03/25 00:57:32;;;;;;;30.87;15.60;;;8.10;60.70;;;;;;5094462;28;20175;-71
2022/03/25 00:59:58;;;;;;;35.43;15.60;;;8.00;60.60;;;;;;5093968;28;20523;-71
2022/03/25 01:02:24;;;;;;;30.63;14.60;;;7.90;60.70;;;;;;5095797;28;20569;-72
2022/03/25 01:04:50;;;;;;;30.47;16.03;;;7.90;60.60;;;;;;5095714;28;20175;-71
2022/03/25 01:07:17;;;;;;;36.97;15.93;;;7.90;60.70;;;;;;5095167;28;20488;-72
2022/03/25 01:09:43;;;;;;;32.50;14.77;;;7.90;61.20;;;;;;5094822;28;20413;-70
2022/03/25 01:12:10;;;;;;;30.03;15.00;;;7.90;61.30;;;;;;5096129;28;20519;-72
2022/03/25 01:14:36;;;;;;;33.87;15.10;;;7.90;61.60;;;;;;5095528;28;20410;-71
2022/03/25 01:17:02;;;;;;;31.17;14.53;;;7.90;61.70;;;;;;5095776;28;20417;-72
2022/03/25 01:19:28;;;;;;;29.17;16.53;;;7.90;61.70;;;;;;5095036;28;20649;-74
2022/03/25 01:21:57;;;;;;;33.07;16.00;;;7.80;61.70;;;;;;5095818;28;20433;-72
2022/03/25 01:24:23;;;;;;;36.93;15.00;;;7.70;61.50;;;;;;5077786;28;20175;-69
2022/03/25 01:26:49;;;;;;;34.87;16.43;;;7.70;61.60;;;;;;5094332;28;20465;-72
2022/03/25 01:29:15;;;;;;;31.30;15.30;;;7.70;62.00;;;;;;5094690;28;20432;-74
2022/03/25 01:31:41;;;;;;;31.83;13.93;;;7.60;62.50;;;;;;5077696;28;20433;-72
2022/03/25 01:34:07;;;;;;;37.13;16.00;;;7.70;62.50;;;;;;5096615;28;20183;-71
2022/03/25 01:36:34;;;;;;;36.50;15.90;;;7.60;62.80;;;;;;5099994;28;20413;-74
2022/03/25 01:39:01;;;;;;;34.77;15.93;;;7.60;63.10;;;;;;5099666;28;20424;-71
2022/03/25 01:41:27;;;;;;;29.93;14.87;;;7.60;63.20;;;;;;5102822;28;20883;-71
2022/03/25 01:43:55;;;;;;;38.17;17.37;;;7.60;63.20;;;;;;5096075;28;20519;-72
2022/03/25 01:46:21;;;;;;;33.87;15.87;;;7.60;63.10;;;;;;5096605;28;20578;-73
2022/03/25 01:48:50;;;;;;;33.20;16.07;;;7.60;62.60;;;;;;5097358;28;20448;-70
2022/03/25 01:51:19;;;;;;;33.83;17.00;;;7.60;62.20;;;;;;5097824;28;21027;-72
2022/03/25 01:53:47;;;;;;;31.47;14.97;;;7.50;62.00;;;;;;5096240;28;20942;-72
2022/03/25 01:56:22;;;;;;;35.43;17.77;;;7.50;62.20;;;;;;5095743;28;20805;-72
2022/03/25 01:58:48;;;;;;;32.77;16.00;;;7.50;61.90;;;;;;5096485;28;20432;-71
2022/03/25 02:01:14;;;;;;;39.23;17.00;;;7.50;61.60;;;;;;5083958;28;20851;-70
2022/03/25 02:03:41;;;;;;;38.07;16.70;;;7.50;61.50;;;;;;5095572;28;20417;-70
2022/03/25 02:06:06;;;;;;;41.53;16.37;;;7.50;61.90;;;;;;5094924;28;20457;-71
2022/03/25 02:08:33;;;;;;;37.67;16.27;;;7.60;61.50;;;;;;5095164;28;20414;-72
2022/03/25 02:10:59;;;;;;;37.93;16.90;;;7.60;60.70;;;;;;5094523;28;20190;-73
2022/03/25 02:13:25;;;;;;;37.83;15.73;;;7.50;60.70;;;;;;5094102;28;20529;-72
2022/03/25 02:15:52;;;;;;;36.17;15.47;;;7.50;60.70;;;;;;5095023;28;20494;-72
2022/03/25 02:18:18;;;;;;;33.60;16.33;;;7.40;61.30;;;;;;5101009;28;20508;-73
2022/03/25 02:20:45;;;;;;;41.50;15.57;;;7.30;61.90;;;;;;5117377;28;20486;-71
2022/03/25 02:23:12;;;;;;;32.67;15.27;;;7.30;62.80;;;;;;5099325;28;20453;-71
2022/03/25 02:25:38;;;;;;;35.30;15.60;;;7.30;63.50;;;;;;5092868;28;20487;-72
2022/03/25 02:28:05;;;;;;;36.07;16.87;;;7.30;63.40;;;;;;5093715;28;20426;-70
2022/03/25 02:30:33;;;;;;;39.00;16.90;;;7.30;63.70;;;;;;5090433;28;21125;-72
2022/03/25 02:33:02;;;;;;;35.73;16.00;;;7.30;63.90;;;;;;5090607;28;20506;-72
2022/03/25 02:35:49;;;;;;;35.50;17.17;;;7.30;63.40;;;;;;5090618;28;20752;-71
2022/03/25 02:38:18;;;;;;;36.63;16.27;;;7.20;63.40;;;;;;5090213;28;20421;-75
2022/03/25 02:40:45;;;;;;;32.50;15.93;;;7.20;63.50;;;;;;5066989;28;20460;-73
2022/03/25 02:43:11;;;;;;;32.30;16.03;;;7.20;63.80;;;;;;5073019;28;20437;-71
2022/03/25 02:45:38;;;;;;;38.83;17.43;;;7.20;63.90;;;;;;5090580;28;20495;-72
2022/03/25 02:48:05;;;;;;;33.63;15.70;;;7.10;64.10;;;;;;5089693;28;20468;-73
2022/03/25 02:50:31;;;;;;;32.33;14.70;;;7.10;64.20;;;;;;5090367;28;20824;-72
2022/03/25 02:52:58;;;;;;;34.20;15.70;;;7.00;64.50;;;;;;5085852;28;20527;-72
2022/03/25 02:55:24;;;;;;;33.57;15.90;;;7.00;65.10;;;;;;5090347;28;20191;-72
2022/03/25 02:57:54;;;;;;;35.43;15.80;;;6.90;65.30;;;;;;5090086;28;20963;-70
2022/03/25 03:00:20;;;;;;;35.93;16.40;;;7.00;65.00;;;;;;5071790;28;20440;-70
2022/03/25 03:02:47;;;;;;;39.30;15.63;;;7.00;64.80;;;;;;5090479;28;20480;-70
2022/03/25 03:05:14;;;;;;;36.17;17.17;;;6.90;64.80;;;;;;5090539;28;21002;-72
2022/03/25 03:07:40;;;;;;;30.87;15.13;;;6.90;65.10;;;;;;5082082;28;20467;-71
2022/03/25 03:10:08;;;;;;;36.57;15.63;;;6.90;65.40;;;;;;5078881;28;20425;-72
2022/03/25 03:12:35;;;;;;;35.63;16.20;;;6.80;65.80;;;;;;5093314;28;20913;-72
2022/03/25 03:15:03;;;;;;;32.23;15.70;;;6.80;66.10;;;;;;5093763;28;20480;-69
2022/03/25 03:17:29;;;;;;;38.30;17.17;;;6.80;66.30;;;;;;5092356;28;20972;-72
2022/03/25 03:19:55;;;;;;;35.23;16.50;;;6.70;66.30;;;;;;5072540;28;20417;-74
2022/03/25 03:22:21;;;;;;;41.63;16.53;;;6.70;66.10;;;;;;5091361;28;20456;-73
2022/03/25 03:24:47;;;;;;;36.63;15.67;;;6.70;65.40;;;;;;5091082;28;20409;-73
2022/03/25 03:27:12;;;;;;;38.47;17.30;;;6.60;65.30;;;;;;5090589;28;20448;-71
2022/03/25 03:29:39;;;;;;;36.50;16.70;;;6.60;65.40;;;;;;5075510;28;20294;-69
2022/03/25 03:32:05;;;;;;;42.03;18.17;;;6.60;65.60;;;;;;5091741;28;20203;-71
2022/03/25 03:34:32;;;;;;;34.93;16.93;;;6.60;66.30;;;;;;5092778;28;20436;-71
2022/03/25 03:36:58;;;;;;;40.57;17.20;;;6.60;66.30;;;;;;5101459;28;20420;-73
2022/03/25 03:39:24;;;;;;;38.37;16.70;;;6.60;66.60;;;;;;5091230;28;20443;-71
2022/03/25 03:41:49;;;;;;;32.30;15.57;;;6.60;66.70;;;;;;5094833;28;20955;-70
2022/03/25 03:44:15;;;;;;;32.03;14.93;;;6.50;66.70;;;;;;5094566;28;20577;-71
2022/03/25 03:46:41;;;;;;;37.40;16.57;;;6.50;67.20;;;;;;5094905;28;20218;-72
2022/03/25 03:49:07;;;;;;;33.93;15.70;;;6.50;67.20;;;;;;5094069;28;20195;-70
2022/03/25 03:51:33;;;;;;;33.33;16.10;;;6.50;67.30;;;;;;5093440;28;20531;-72
2022/03/25 03:54:00;;;;;;;38.30;17.20;;;6.40;67.20;;;;;;5091382;28;20468;-73
2022/03/25 03:56:26;;;;;;;37.80;16.07;;;6.30;67.20;;;;;;5096991;28;20428;-71
2022/03/25 03:58:52;;;;;;;36.53;16.10;;;6.30;67.60;;;;;;5082618;28;20494;-71
2022/03/25 04:01:18;;;;;;;31.47;15.47;;;6.20;67.60;;;;;;5090104;28;20523;-73
2022/03/25 04:03:44;;;;;;;29.60;14.00;;;6.20;67.90;;;;;;5094879;28;20781;-74
2022/03/25 04:06:10;;;;;;;42.23;16.10;;;6.20;68.20;;;;;;5093809;28;20463;-72
2022/03/25 04:08:36;;;;;;;34.33;16.70;;;6.20;68.50;;;;;;5093665;28;20929;-73
2022/03/25 04:11:03;;;;;;;37.90;17.90;;;6.10;68.60;;;;;;5093874;28;20425;-73
2022/03/25 04:13:29;;;;;;;38.23;16.30;;;6.00;68.90;;;;;;5094520;28;20240;-73
2022/03/25 04:15:55;;;;;;;31.80;15.43;;;6.00;69.10;;;;;;5094354;28;20421;-71
2022/03/25 04:18:22;;;;;;;40.90;18.13;;;6.00;68.60;;;;;;5093006;28;20417;-73
2022/03/25 04:20:49;;;;;;;48.40;16.77;;;5.90;69.10;;;;;;5095174;28;20460;-72
2022/03/25 04:23:15;;;;;;;40.17;17.30;;;5.80;69.50;;;;;;5077309;28;20441;-72
2022/03/25 04:25:41;;;;;;;36.23;16.77;;;5.80;69.80;;;;;;5077582;28;20844;-70
2022/03/25 04:28:07;;;;;;;39.93;16.83;;;5.70;70.20;;;;;;5077095;28;20429;-72
2022/03/25 04:30:36;;;;;;;36.13;15.37;;;5.70;70.40;;;;;;5096282;28;20471;-72
2022/03/25 04:33:02;;;;;;;33.63;15.77;;;5.70;70.40;;;;;;5084396;28;20444;-72
2022/03/25 04:35:28;;;;;;;34.30;16.40;;;5.80;70.20;;;;;;5105867;28;20449;-74
2022/03/25 04:37:55;;;;;;;36.80;16.70;;;5.80;69.90;;;;;;5097455;28;20919;-73
2022/03/25 04:40:22;;;;;;;37.13;16.50;;;5.80;70.40;;;;;;5094059;28;20423;-73
2022/03/25 04:42:49;;;;;;;34.53;16.30;;;5.80;70.20;;;;;;5093714;28;21000;-72
2022/03/25 04:45:17;;;;;;;31.27;15.23;;;5.80;70.50;;;;;;5075242;28;20460;-72
2022/03/25 04:47:44;;;;;;;35.33;15.93;;;5.80;70.20;;;;;;5093981;28;20417;-73
2022/03/25 04:50:11;;;;;;;40.63;17.30;;;5.80;69.20;;;;;;5092258;28;20480;-72
2022/03/25 04:52:38;;;;;;;35.83;16.60;;;5.90;68.50;;;;;;5088256;28;20440;-72
2022/03/25 04:55:04;;;;;;;39.00;15.93;;;5.90;68.00;;;;;;5093508;28;20448;-72
2022/03/25 04:57:30;;;;;;;41.10;16.83;;;5.80;68.00;;;;;;5092712;28;20425;-73
2022/03/25 04:59:55;;;;;;;39.63;17.23;;;5.80;68.30;;;;;;5092523;28;20429;-74
2022/03/25 05:02:22;;;;;;;34.23;16.20;;;5.70;68.60;;;;;;5093454;28;20720;-74
2022/03/25 05:04:48;;;;;;;32.60;16.40;;;5.70;69.20;;;;;;5076572;28;20657;-72
2022/03/25 05:07:15;;;;;;;44.30;18.00;;;5.70;69.40;;;;;;5075755;28;20424;-74
2022/03/25 05:09:41;;;;;;;43.23;16.63;;;5.70;69.20;;;;;;5077662;28;20409;-72
2022/03/25 05:12:08;;;;;;;34.30;15.17;;;5.80;69.10;;;;;;5093921;28;20498;-73
2022/03/25 05:14:34;;;;;;;38.10;15.77;;;5.80;68.90;;;;;;5093570;28;20417;-72
2022/03/25 05:17:00;;;;;;;37.80;17.90;;;5.80;69.10;;;;;;5092169;28;20424;-73
2022/03/25 05:19:26;;;;;;;37.93;16.13;;;5.70;69.20;;;;;;5092366;28;20790;-72
2022/03/25 05:21:52;;;;;;;38.00;16.97;;;5.70;69.70;;;;;;5093547;28;20447;-71
2022/03/25 05:24:17;;;;;;;32.73;15.53;;;5.60;69.80;;;;;;5095704;28;20426;-74
2022/03/25 05:26:44;;;;;;;38.60;18.07;;;5.70;69.90;;;;;;5100811;28;20285;-74
2022/03/25 05:29:10;;;;;;;40.13;17.37;;;5.70;70.10;;;;;;5073736;28;20179;-73
2022/03/25 05:31:37;;;;;;;38.67;17.23;;;5.70;70.20;;;;;;5091868;28;20456;-73
2022/03/25 05:34:06;;;;;;;39.00;17.20;;;5.70;70.40;;;;;;5096992;28;20910;-74
2022/03/25 05:36:33;;;;;;;42.53;17.30;;;5.70;70.40;;;;;;5105205;28;20441;-72
2022/03/25 05:39:00;;;;;;;38.70;16.50;;;5.70;70.50;;;;;;5087000;28;20443;-73
2022/03/25 05:41:29;;;;;;;39.10;17.40;;;5.70;70.70;;;;;;5106680;28;20453;-73
2022/03/25 05:43:55;;;;;;;44.10;18.50;;;5.70;70.80;;;;;;5087457;28;20449;-73
2022/03/25 05:46:22;;;;;;;37.93;17.27;;;5.70;71.00;;;;;;5106775;28;20565;-74
2022/03/25 05:48:47;;;;;;;42.30;17.77;;;5.70;70.70;;;;;;5104980;28;20483;-74
2022/03/25 05:51:14;;;;;;;39.47;17.10;;;5.70;70.50;;;;;;5077775;28;20838;-74
2022/03/25 05:53:41;;;;;;;39.33;16.93;;;5.80;69.90;;;;;;5086753;28;20210;-74
2022/03/25 05:56:07;;;;;;;39.10;18.37;;;5.80;69.80;;;;;;5091217;28;20425;-72
2022/03/25 05:58:34;;;;;;;35.47;16.33;;;5.90;69.50;;;;;;5090699;28;20417;-71
2022/03/25 06:01:01;;;;;;;43.80;19.80;;;5.90;69.50;;;;;;5097156;28;20425;-73
2022/03/25 06:03:27;;;;;;;42.67;19.40;;;5.90;69.10;;;;;;5102441;28;20441;-74
2022/03/25 06:05:53;;;;;;;46.20;20.07;;;5.90;68.80;;;;;;5100110;28;20536;-73
2022/03/25 06:08:19;;;;;;;41.07;17.27;;;5.90;68.50;;;;;;5100143;28;20217;-73
2022/03/25 06:10:45;;;;;;;40.33;17.90;;;5.90;68.60;;;;;;5081025;28;20431;-73
2022/03/25 06:13:10;;;;;;;40.33;17.23;;;6.00;68.60;;;;;;5093589;28;20458;-74
2022/03/25 06:15:36;;;;;;;41.13;18.10;;;6.00;68.30;;;;;;5094513;28;20183;-70
2022/03/25 06:18:02;;;;;;;46.73;18.50;;;6.00;68.60;;;;;;5093955;28;20202;-71
2022/03/25 06:20:29;;;;;;;34.77;17.97;;;6.00;68.60;;;;;;5094449;28;20174;-72
2022/03/25 06:22:55;;;;;;;44.57;17.50;;;6.00;68.80;;;;;;5092890;28;20211;-70
2022/03/25 06:25:20;;;;;;;33.23;17.37;;;6.10;68.60;;;;;;5097800;28;20471;-72
2022/03/25 06:27:46;;;;;;;45.43;17.57;;;6.20;68.20;;;;;;5092495;28;20930;-74
2022/03/25 06:30:13;;;;;;;39.47;17.50;;;6.20;68.30;;;;;;5091538;28;20186;-74
2022/03/25 06:32:40;;;;;;;40.30;18.40;;;6.30;68.30;;;;;;5075947;28;20202;-71
2022/03/25 06:35:07;;;;;;;43.50;17.90;;;6.30;67.90;;;;;;5093107;28;20490;-74
2022/03/25 06:37:33;;;;;;;44.17;18.67;;;6.40;67.70;;;;;;5095173;28;20435;-75
2022/03/25 06:39:59;;;;;;;39.90;17.87;;;6.40;67.50;;;;;;5096149;28;20417;-74
2022/03/25 06:42:25;;;;;;;41.53;18.10;;;6.40;67.30;;;;;;5096762;28;20436;-72
2022/03/25 06:44:51;;;;;;;44.27;19.63;;;6.40;67.30;;;;;;5096962;28;20187;-73
2022/03/25 06:47:17;;;;;;;38.03;18.20;;;6.50;67.20;;;;;;5097111;28;20432;-75
2022/03/25 06:49:43;;;;;;;47.67;21.00;;;6.50;67.50;;;;;;5092134;28;20183;-72
2022/03/25 06:52:09;;;;;;;39.23;18.47;;;6.60;67.50;;;;;;5104231;28;20207;-72
2022/03/25 06:54:35;;;;;;;40.77;20.97;;;6.60;67.50;;;;;;5100301;28;20434;-70
2022/03/25 06:57:01;;;;;;;40.57;18.43;;;6.60;67.70;;;;;;5091863;28;20417;-72
2022/03/25 06:59:27;;;;;;;40.97;18.90;;;6.70;67.60;;;;;;5091193;28;20420;-71
2022/03/25 07:01:54;;;;;;;42.17;19.50;;;6.80;67.00;;;;;;5086838;28;20514;-74
2022/03/25 07:04:21;;;;;;;50.67;22.90;;;6.90;66.60;;;;;;5074612;28;20425;-73
2022/03/25 07:06:48;;;;;;;45.47;21.50;;;6.90;66.60;;;;;;5085269;28;20461;-73
2022/03/25 07:09:15;;;;;;;54.70;23.37;;;7.00;66.40;;;;;;5089977;28;20893;-72
2022/03/25 07:11:41;;;;;;;40.97;19.83;;;7.10;66.30;;;;;;5092144;28;20459;-73
2022/03/25 07:14:06;;;;;;;47.23;21.17;;;7.20;66.10;;;;;;5096901;28;21169;-74
2022/03/25 07:16:32;;;;;;;46.00;20.87;;;7.30;66.00;;;;;;5097202;28;20421;-74
2022/03/25 07:19:01;;;;;;;46.50;21.50;;;7.30;65.70;;;;;;5096170;28;20256;-72
2022/03/25 07:21:26;;;;;;;39.63;19.60;;;7.40;65.60;;;;;;5097134;28;20435;-75
2022/03/25 07:23:52;;;;;;;46.80;22.10;;;7.40;65.60;;;;;;5097055;28;21033;-75
2022/03/25 07:26:18;;;;;;;60.83;24.00;;;7.50;65.10;;;;;;5098692;28;20203;-74
2022/03/25 07:28:44;;;;;;;46.97;21.17;;;7.60;64.80;;;;;;5102231;28;20179;-73
2022/03/25 07:31:10;;;;;;;46.40;22.20;;;7.50;64.80;;;;;;5103075;28;20254;-73
2022/03/25 07:33:36;;;;;;;40.13;20.20;;;7.60;64.50;;;;;;5100183;28;20542;-75
2022/03/25 07:36:02;;;;;;;50.80;21.00;;;7.70;64.50;;;;;;5096794;28;20302;-73
2022/03/25 07:38:28;;;;;;;46.53;20.77;;;7.70;64.40;;;;;;5096337;28;20754;-72
2022/03/25 07:40:55;;;;;;;45.83;21.87;;;7.80;63.90;;;;;;5096567;28;20719;-73
2022/03/25 07:43:21;;;;;;;48.57;22.43;;;7.90;63.80;;;;;;5096914;28;20443;-72
2022/03/25 07:45:47;;;;;;;48.70;21.97;;;8.00;63.20;;;;;;5099111;28;20456;-72
2022/03/25 07:48:13;;;;;;;93.47;27.63;;;8.10;63.20;;;;;;5078561;28;20244;-73
2022/03/25 07:50:39;;;;;;;52.00;22.13;;;8.20;63.40;;;;;;5080939;28;20826;-72
2022/03/25 07:53:05;;;;;;;54.37;23.80;;;8.30;63.10;;;;;;5092013;28;20234;-71
2022/03/25 07:55:30;;;;;;;51.10;21.90;;;8.40;62.60;;;;;;5097014;28;20175;-72
2022/03/25 07:57:57;;;;;;;48.43;21.70;;;8.50;62.30;;;;;;5095757;28;20421;-72
2022/03/25 08:00:24;;;;;;;48.43;19.93;;;8.50;62.00;;;;;;5092723;28;20784;-75
2022/03/25 08:02:52;;;;;;;46.30;20.77;;;8.60;61.20;;;;;;5087152;28;20559;-76
2022/03/25 08:05:19;;;;;;;48.87;22.40;;;8.70;61.30;;;;;;5098181;28;20549;-74
2022/03/25 08:07:52;;;;;;;43.17;21.03;;;8.80;60.70;;;;;;5097422;28;20505;-75
2022/03/25 08:10:21;;;;;;;48.67;21.90;;;8.90;60.60;;;;;;5098660;28;20419;-73
2022/03/25 08:12:48;;;;;;;38.53;21.27;;;9.10;60.10;;;;;;5099245;28;20446;-76
2022/03/25 08:15:14;;;;;;;45.30;21.50;;;9.20;59.50;;;;;;5099087;28;20435;-72
2022/03/25 08:17:57;;;;;;;48.87;22.60;;;9.30;59.20;;;;;;5083010;28;20871;-74
2022/03/25 08:20:24;;;;;;;43.03;22.70;;;9.40;58.90;;;;;;5085045;28;20424;-74
2022/03/25 08:22:51;;;;;;;48.73;22.20;;;9.50;58.50;;;;;;5108576;28;20449;-75
2022/03/25 08:28:01;;;;;;;45.37;20.90;;;9.70;57.60;;;;;;5092588;28;20427;-74
2022/03/25 08:30:33;;;;;;;51.47;21.17;;;9.80;56.80;;;;;;5095411;28;20504;-75
2022/03/25 08:33:01;;;;;;;45.27;22.53;;;9.90;56.80;;;;;;5093577;28;20918;-73
2022/03/25 08:35:27;;;;;;;47.70;21.70;;;10.10;56.10;;;;;;5094911;28;20512;-73
2022/03/25 08:37:54;;;;;;;44.27;20.70;;;10.20;55.80;;;;;;5093194;28;20512;-74
2022/03/25 08:40:25;;;;;;;46.43;22.97;;;10.30;55.30;;;;;;5094527;28;20187;-73
2022/03/25 08:42:51;;;;;;;49.63;22.03;;;10.40;54.60;;;;;;5094356;28;21108;-75
2022/03/25 08:45:17;;;;;;;50.97;22.03;;;10.50;54.20;;;;;;5094525;28;20501;-74
2022/03/25 08:47:44;;;;;;;46.00;21.57;;;10.60;53.60;;;;;;5093962;28;20183;-73
2022/03/25 08:50:12;;;;;;;45.60;21.37;;;10.80;53.30;;;;;;5094334;28;20440;-76
2022/03/25 08:52:45;;;;;;;50.17;22.70;;;10.90;52.50;;;;;;5094632;28;20460;-73
2022/03/25 08:55:11;;;;;;;51.83;23.47;;;10.90;52.60;;;;;;5095208;28;21143;-73
2022/03/25 08:57:38;;;;;;;49.50;22.43;;;11.00;52.50;;;;;;5095761;28;20424;-74
2022/03/25 09:00:10;;;;;;;62.37;29.40;;;11.20;51.60;;;;;;5098384;28;20417;-73
2022/03/25 09:02:38;;;;;;;58.83;24.20;;;11.30;52.00;;;;;;5094698;28;20439;-75
2022/03/25 09:05:05;;;;;;;47.13;22.47;;;11.40;50.70;;;;;;5083309;28;20511;-75
2022/03/25 09:07:31;;;;;;;50.33;22.93;;;11.60;50.30;;;;;;5077833;28;20438;-72
2022/03/25 09:09:57;;;;;;;47.20;22.20;;;11.60;50.20;;;;;;5103819;28;20495;-75
2022/03/25 09:12:23;;;;;;;42.83;20.97;;;11.70;49.70;;;;;;5101604;28;20482;-74
2022/03/25 09:14:49;;;;;;;46.07;23.33;;;11.80;49.70;;;;;;5097357;28;20424;-74
2022/03/25 09:17:15;;;;;;;47.77;22.80;;;11.90;49.70;;;;;;5093619;28;20482;-73
2022/03/25 09:19:42;;;;;;;58.30;25.00;;;12.00;49.10;;;;;;5092856;28;20409;-72
2022/03/25 09:22:08;;;;;;;51.87;23.00;;;12.10;48.70;;;;;;5092799;28;20946;-74
2022/03/25 09:24:34;;;;;;;50.70;22.30;;;12.20;48.10;;;;;;5093503;28;20417;-73
2022/03/25 09:26:59;;;;;;;55.40;23.90;;;12.30;47.70;;;;;;5092515;28;20487;-72
2022/03/25 09:29:25;;;;;;;51.53;22.13;;;12.30;47.30;;;;;;5077621;28;20425;-72
2022/03/25 09:31:51;;;;;;;49.40;21.43;;;12.30;47.40;;;;;;5077793;28;20245;-73
2022/03/25 09:37:01;;;;;;;47.40;22.70;;;12.50;47.30;;;;;;5092596;28;20415;-74
2022/03/25 09:39:27;;;;;;;45.00;22.53;;;12.60;46.30;;;;;;5092559;28;20508;-73
2022/03/25 09:41:54;;;;;;;52.13;23.07;;;12.80;46.20;;;;;;5073746;28;20880;-74
2022/03/25 09:44:19;;;;;;;50.20;24.20;;;12.90;45.40;;;;;;5074370;28;20421;-74
2022/03/25 09:46:46;;;;;;;58.80;23.10;;;13.00;45.50;;;;;;5092158;28;20452;-75
2022/03/25 09:49:12;;;;;;;51.47;23.50;;;13.10;45.10;;;;;;5092067;28;20195;-72
2022/03/25 09:51:40;;;;;;;52.77;23.10;;;13.30;44.70;;;;;;5091979;28;20483;-73
2022/03/25 09:54:08;;;;;;;59.63;26.50;;;13.40;44.20;;;;;;5091704;28;20413;-73
2022/03/25 09:56:34;;;;;;;51.77;22.37;;;13.50;43.90;;;;;;5093011;28;20466;-73
2022/03/25 09:59:01;;;;;;;53.10;22.80;;;13.60;43.20;;;;;;5075601;28;20445;-72
2022/03/25 10:01:26;;;;;;;54.83;25.47;;;13.70;43.00;;;;;;5097873;28;20255;-73
2022/03/25 10:03:52;;;;;;;62.73;24.83;;;13.80;42.60;;;;;;5091500;28;20479;-75
2022/03/25 10:06:18;;;;;;;63.13;26.27;;;13.90;42.60;;;;;;5092422;28;20218;-73
2022/03/25 10:08:45;;;;;;;57.00;25.83;;;14.00;42.70;;;;;;5082048;28;20176;-75
2022/03/25 10:11:21;;;;;;;60.00;26.47;;;14.00;42.30;;;;;;5092458;28;20176;-75
2022/03/25 10:13:47;;;;;;;47.50;23.20;;;14.10;41.90;;;;;;5093101;28;20422;-73
2022/03/25 10:16:33;;;;;;;50.93;23.77;;;14.20;41.40;;;;;;5080984;28;20756;-72
2022/03/25 10:18:59;;;;;;;48.80;24.30;;;14.20;41.10;;;;;;5091409;28;20494;-75
2022/03/25 10:21:25;;;;;;;53.30;22.90;;;14.30;39.90;;;;;;5091668;28;20528;-74
2022/03/25 10:23:51;;;;;;;51.33;23.73;;;14.40;39.10;;;;;;5092364;28;20421;-75
2022/03/25 10:26:17;;;;;;;49.73;23.70;;;14.50;39.20;;;;;;5091619;28;20472;-73
2022/03/25 10:28:45;;;;;;;51.70;25.10;;;14.60;38.80;;;;;;5091799;28;20263;-73
2022/03/25 10:31:18;;;;;;;49.03;23.80;;;14.60;37.90;;;;;;5091343;28;20234;-75
2022/03/25 10:33:57;;;;;;;51.43;23.77;;;14.60;37.00;;;;;;5092155;28;20425;-72
2022/03/25 10:36:25;;;;;;;54.40;24.30;;;14.70;37.00;;;;;;5091270;28;20441;-72
2022/03/25 10:39:05;;;;;;;47.57;22.80;;;14.70;35.50;;;;;;5091351;28;20433;-72
2022/03/25 10:41:43;;;;;;;47.40;22.70;;;14.80;36.00;;;;;;5090197;28;20411;-74
2022/03/25 10:44:10;;;;;;;53.00;23.47;;;14.80;35.20;;;;;;5086905;28;20478;-73
2022/03/25 10:46:39;;;;;;;50.17;25.30;;;14.90;36.00;;;;;;5091741;28;20463;-73
2022/03/25 10:49:11;;;;;;;50.07;24.77;;;15.20;35.70;;;;;;5091610;28;20931;-73
2022/03/25 10:51:41;;;;;;;53.70;24.57;;;15.50;35.50;;;;;;5085220;28;20437;-74
2022/03/25 10:54:10;;;;;;;50.37;24.07;;;15.90;35.10;;;;;;5092489;28;20486;-75
2022/03/25 10:56:45;;;;;;;59.10;25.87;;;16.30;34.70;;;;;;5092470;28;20413;-72
2022/03/25 10:59:28;;;;;;;54.93;24.60;;;16.60;34.30;;;;;;5092352;28;20550;-74
2022/03/25 11:01:59;;;;;;;50.50;25.30;;;16.90;33.70;;;;;;5092322;28;20513;-73
2022/03/25 11:04:26;;;;;;;46.43;24.30;;;17.00;33.30;;;;;;5090021;28;20417;-73
2022/03/25 11:06:53;;;;;;;55.10;25.60;;;17.10;33.20;;;;;;5092775;28;20917;-74
2022/03/25 11:09:21;;;;;;;52.40;24.83;;;17.30;33.20;;;;;;5092303;28;20473;-73
2022/03/25 11:11:48;;;;;;;53.40;24.43;;;17.50;32.80;;;;;;5091447;28;21031;-74
2022/03/25 11:14:14;;;;;;;48.87;24.60;;;17.40;32.10;;;;;;5091224;28;20414;-75
2022/03/25 11:16:47;;;;;;;56.47;27.03;;;17.70;32.30;;;;;;5091070;28;21338;-73
2022/03/25 11:19:14;;;;;;;47.80;26.37;;;17.70;31.90;;;;;;5091038;28;20484;-73
2022/03/25 11:21:43;;;;;;;49.13;24.13;;;17.90;31.30;;;;;;5090849;28;20511;-73
2022/03/25 11:24:33;;;;;;;49.17;23.97;;;18.00;31.10;;;;;;5091514;28;20977;-72
2022/03/25 11:27:09;;;;;;;54.17;24.00;;;18.00;29.50;;;;;;5092220;28;20472;-75
2022/03/25 11:29:39;;;;;;;42.80;22.60;;;18.00;29.70;;;;;;5093672;28;20408;-75
2022/03/25 11:32:13;;;;;;;51.67;23.63;;;17.90;29.60;;;;;;5091451;28;20486;-72
2022/03/25 11:34:54;;;;;;;46.60;24.63;;;17.90;29.60;;;;;;5091663;28;20934;-74
2022/03/25 11:37:31;;;;;;;46.93;23.17;;;17.90;29.10;;;;;;5091737;28;20403;-72
2022/03/25 11:40:15;;;;;;;43.00;21.67;;;18.20;29.10;;;;;;5091423;28;20413;-73
2022/03/25 11:42:46;;;;;;;47.10;23.43;;;18.60;28.70;;;;;;5084719;28;21061;-74
2022/03/25 11:45:21;;;;;;;43.67;23.10;;;18.80;28.20;;;;;;5090604;28;20428;-73
2022/03/25 11:48:08;;;;;;;54.53;24.87;;;18.80;28.20;;;;;;5090370;28;20405;-74
2022/03/25 11:50:36;;;;;;;51.73;24.43;;;19.10;28.40;;;;;;5065447;28;20446;-74
2022/03/25 11:53:11;;;;;;;45.50;22.97;;;19.20;28.30;;;;;;5091282;28;20450;-74
2022/03/25 11:55:52;;;;;;;50.37;23.40;;;19.60;28.30;;;;;;5091076;28;20506;-73
2022/03/25 11:58:19;;;;;;;51.37;23.60;;;19.60;27.40;;;;;;5092111;28;21058;-74
2022/03/25 12:00:48;;;;;;;48.73;23.43;;;19.50;27.80;;;;;;5083531;28;20425;-74
2022/03/25 12:03:15;;;;;;;46.80;23.60;;;19.40;28.00;;;;;;5093971;28;20445;-73
2022/03/25 12:06:00;;;;;;;47.60;22.27;;;19.20;27.80;;;;;;5096284;28;20873;-72
2022/03/25 12:08:35;;;;;;;47.07;23.73;;;19.20;27.90;;;;;;5084314;28;20429;-73
2022/03/25 12:11:03;;;;;;;43.93;23.60;;;19.20;28.10;;;;;;5095643;28;20428;-74
2022/03/25 12:13:51;;;;;;;42.30;21.90;;;19.00;28.30;;;;;;5080994;28;20448;-72
2022/03/25 12:16:48;;;;;;;47.47;25.10;;;19.20;28.10;;;;;;5093228;28;20432;-75
2022/03/25 12:19:26;;;;;;;45.53;22.87;;;19.10;28.40;;;;;;5074037;28;20417;-75
2022/03/25 12:21:59;;;;;;;43.67;22.43;;;19.10;28.80;;;;;;5095563;28;20525;-73
2022/03/25 12:24:26;;;;;;;44.07;20.70;;;19.20;29.00;;;;;;5079044;28;20418;-74
2022/03/25 12:26:57;;;;;;;40.73;20.70;;;19.50;28.20;;;;;;5107290;28;20461;-75
2022/03/25 12:29:30;;;;;;;39.77;20.50;;;19.90;26.40;;;;;;5109654;28;20430;-74
2022/03/25 12:31:56;;;;;;;44.40;23.07;;;20.10;26.70;;;;;;5110324;28;20447;-73
2022/03/25 12:34:40;;;;;;;44.73;22.17;;;20.30;26.50;;;;;;5111794;28;20423;-73
2022/03/25 12:37:11;;;;;;;41.70;20.37;;;20.00;26.50;;;;;;5089547;28;20485;-74
2022/03/25 12:39:38;;;;;;;41.63;21.90;;;19.70;27.60;;;;;;5104319;28;20414;-75
2022/03/25 12:42:13;;;;;;;43.60;22.00;;;19.80;27.50;;;;;;5111953;28;20441;-75